sensor_id;sensor_type;location;lat;lon;timestamp;pressure;altitude;pressure_sealevel;temperature;humidity
6829;BME280;17930;48.592;8.868;2024-02-26T00:01:49;94910.13;;;4.93;100.00
6829;BME280;17930;48.592;8.868;2024-02-26T00:04:17;94898.72;;;5.25;100.00
6829;BME280;17930;48.592;8.868;2024-02-26T00:06:44;94898.03;;;5.38;100.00
6829;BME280;17930;48.592;8.868;2024-02-26T00:09:11;94901.59;;;5.24;100.00
6829;BME280;17930;48.592;8.868;2024-02-26T00:11:37;94901.00;;;5.13;100.00
6829;BME280;17930;48.592;8.868;2024-02-26T00:14:05;94897.44;;;5.09;100.00
6829;BME280;17930;48.592;8.868;2024-02-26T00:16:31;94901.38;;;5.07;100.00
6829;BME280;17930;48.592;8.868;2024-02-26T00:18:58;94900.81;;;5.10;100.00
6829;BME280;17930;48.592;8.868;2024-02-26T00:21:26;94876.06;;;5.22;100.00
6829;BME280;17930;48.592;8.868;2024-02-26T00:23:53;94861.66;;;5.48;100.00
6829;BME280;17930;48.592;8.868;2024-02-26T00:26:19;94860.22;;;5.69;100.00
6829;BME280;17930;48.592;8.868;2024-02-26T00:28:46;94854.00;;;5.57;100.00
6829;BME280;17930;48.592;8.868;2024-02-26T00:31:13;94872.75;;;5.62;100.00
6829;BME280;17930;48.592;8.868;2024-02-26T00:33:40;94873.56;;;5.76;100.00
6829;BME280;17930;48.592;8.868;2024-02-26T00:36:07;94889.81;;;5.63;100.00
6829;BME280;17930;48.592;8.868;2024-02-26T00:38:35;94870.28;;;5.57;100.00
6829;BME280;17930;48.592;8.868;2024-02-26T00:41:01;94872.75;;;5.49;100.00
6829;BME280;17930;48.592;8.868;2024-02-26T00:43:28;94874.66;;;5.43;100.00
6829;BME280;17930;48.592;8.868;2024-02-26T00:45:55;94869.50;;;5.43;100.00
6829;BME280;17930;48.592;8.868;2024-02-26T00:48:21;94870.09;;;5.67;100.00
6829;BME280;17930;48.592;8.868;2024-02-26T00:50:51;94855.34;;;5.67;100.00
6829;BME280;17930;48.592;8.868;2024-02-26T00:53:17;94862.41;;;5.49;100.00
6829;BME280;17930;48.592;8.868;2024-02-26T00:55:46;94883.38;;;5.47;100.00
6829;BME280;17930;48.592;8.868;2024-02-26T00:58:12;94901.06;;;5.40;100.00
6829;BME280;17930;48.592;8.868;2024-02-26T01:00:39;94896.38;;;5.42;100.00
6829;BME280;17930;48.592;8.868;2024-02-26T01:03:06;94889.88;;;5.45;100.00
6829;BME280;17930;48.592;8.868;2024-02-26T01:05:35;94894.75;;;5.46;100.00
6829;BME280;17930;48.592;8.868;2024-02-26T01:08:03;94899.00;;;5.69;100.00
6829;BME280;17930;48.592;8.868;2024-02-26T01:10:30;94909.97;;;5.93;100.00
6829;BME280;17930;48.592;8.868;2024-02-26T01:12:58;94908.41;;;5.65;100.00
6829;BME280;17930;48.592;8.868;2024-02-26T01:15:25;94893.63;;;5.52;100.00
6829;BME280;17930;48.592;8.868;2024-02-26T01:17:52;94904.22;;;5.82;100.00
6829;BME280;17930;48.592;8.868;2024-02-26T01:20:19;94921.84;;;5.80;100.00
6829;BME280;17930;48.592;8.868;2024-02-26T01:22:46;94903.03;;;5.61;100.00
6829;BME280;17930;48.592;8.868;2024-02-26T01:25:14;94889.06;;;5.62;100.00
6829;BME280;17930;48.592;8.868;2024-02-26T01:27:41;94900.88;;;5.95;100.00
6829;BME280;17930;48.592;8.868;2024-02-26T01:30:11;94917.53;;;6.03;100.00
6829;BME280;17930;48.592;8.868;2024-02-26T01:32:38;94926.63;;;5.87;100.00
6829;BME280;17930;48.592;8.868;2024-02-26T01:35:05;94926.84;;;6.04;100.00
6829;BME280;17930;48.592;8.868;2024-02-26T01:37:35;94908.63;;;5.82;100.00
6829;BME280;17930;48.592;8.868;2024-02-26T01:40:02;94910.94;;;5.97;100.00
6829;BME280;17930;48.592;8.868;2024-02-26T01:42:30;94919.06;;;5.77;100.00
6829;BME280;17930;48.592;8.868;2024-02-26T01:44:57;94924.00;;;5.73;100.00
6829;BME280;17930;48.592;8.868;2024-02-26T01:47:26;94904.81;;;5.79;100.00
6829;BME280;17930;48.592;8.868;2024-02-26T01:49:54;94904.97;;;5.83;100.00
6829;BME280;17930;48.592;8.868;2024-02-26T01:52:21;94899.41;;;5.76;100.00
6829;BME280;17930;48.592;8.868;2024-02-26T01:54:48;94910.44;;;5.81;100.00
6829;BME280;17930;48.592;8.868;2024-02-26T01:57:16;94916.63;;;5.67;100.00
6829;BME280;17930;48.592;8.868;2024-02-26T01:59:42;94937.16;;;5.77;100.00
6829;BME280;17930;48.592;8.868;2024-02-26T02:02:10;94931.53;;;5.75;100.00
6829;BME280;17930;48.592;8.868;2024-02-26T02:04:39;94930.03;;;5.69;100.00
6829;BME280;17930;48.592;8.868;2024-02-26T02:07:06;94931.75;;;5.73;100.00
6829;BME280;17930;48.592;8.868;2024-02-26T02:09:33;94937.22;;;5.72;100.00
6829;BME280;17930;48.592;8.868;2024-02-26T02:12:00;94940.38;;;5.69;100.00
6829;BME280;17930;48.592;8.868;2024-02-26T02:14:27;94935.25;;;5.96;100.00
6829;BME280;17930;48.592;8.868;2024-02-26T02:16:53;94926.34;;;5.75;100.00
6829;BME280;17930;48.592;8.868;2024-02-26T02:19:20;94919.78;;;5.64;100.00
6829;BME280;17930;48.592;8.868;2024-02-26T02:21:48;94912.44;;;5.84;100.00
6829;BME280;17930;48.592;8.868;2024-02-26T02:24:15;94911.69;;;5.84;100.00
6829;BME280;17930;48.592;8.868;2024-02-26T02:26:42;94899.44;;;6.03;100.00
6829;BME280;17930;48.592;8.868;2024-02-26T02:29:09;94903.25;;;6.05;100.00
6829;BME280;17930;48.592;8.868;2024-02-26T02:31:36;94903.84;;;5.75;100.00
6829;BME280;17930;48.592;8.868;2024-02-26T02:34:03;94906.66;;;5.60;100.00
6829;BME280;17930;48.592;8.868;2024-02-26T02:36:29;94911.63;;;5.57;100.00
6829;BME280;17930;48.592;8.868;2024-02-26T02:38:57;94910.66;;;5.53;100.00
6829;BME280;17930;48.592;8.868;2024-02-26T02:41:24;94917.97;;;5.51;100.00
6829;BME280;17930;48.592;8.868;2024-02-26T02:43:51;94908.00;;;5.58;100.00
6829;BME280;17930;48.592;8.868;2024-02-26T02:46:19;94920.72;;;5.86;100.00
6829;BME280;17930;48.592;8.868;2024-02-26T02:48:46;94919.75;;;6.09;100.00
6829;BME280;17930;48.592;8.868;2024-02-26T02:51:15;94915.16;;;6.06;100.00
6829;BME280;17930;48.592;8.868;2024-02-26T02:53:42;94918.22;;;5.95;100.00
6829;BME280;17930;48.592;8.868;2024-02-26T02:56:10;94923.59;;;5.85;100.00
6829;BME280;17930;48.592;8.868;2024-02-26T02:58:38;94922.78;;;5.71;100.00
6829;BME280;17930;48.592;8.868;2024-02-26T03:01:05;94918.97;;;5.82;100.00
6829;BME280;17930;48.592;8.868;2024-02-26T03:03:31;94918.34;;;5.71;100.00
6829;BME280;17930;48.592;8.868;2024-02-26T03:05:58;94916.25;;;5.60;100.00
6829;BME280;17930;48.592;8.868;2024-02-26T03:08:25;94913.34;;;5.48;100.00
6829;BME280;17930;48.592;8.868;2024-02-26T03:10:52;94908.53;;;5.42;100.00
6829;BME280;17930;48.592;8.868;2024-02-26T03:13:20;94910.09;;;5.56;100.00
6829;BME280;17930;48.592;8.868;2024-02-26T03:15:47;94896.09;;;5.44;100.00
6829;BME280;17930;48.592;8.868;2024-02-26T03:18:13;94880.97;;;5.37;100.00
6829;BME280;17930;48.592;8.868;2024-02-26T03:20:40;94878.84;;;5.39;100.00
6829;BME280;17930;48.592;8.868;2024-02-26T03:23:07;94875.75;;;5.24;100.00
6829;BME280;17930;48.592;8.868;2024-02-26T03:25:37;94879.81;;;5.30;100.00
6829;BME280;17930;48.592;8.868;2024-02-26T03:28:04;94886.47;;;5.17;100.00
6829;BME280;17930;48.592;8.868;2024-02-26T03:30:32;94878.22;;;5.15;100.00
6829;BME280;17930;48.592;8.868;2024-02-26T03:33:00;94874.25;;;5.23;100.00
6829;BME280;17930;48.592;8.868;2024-02-26T03:35:26;94883.47;;;5.42;100.00
6829;BME280;17930;48.592;8.868;2024-02-26T03:37:53;94873.28;;;5.32;100.00
6829;BME280;17930;48.592;8.868;2024-02-26T03:40:20;94870.31;;;5.25;100.00
6829;BME280;17930;48.592;8.868;2024-02-26T03:42:47;94878.63;;;5.22;100.00
6829;BME280;17930;48.592;8.868;2024-02-26T03:45:13;94873.00;;;5.20;100.00
6829;BME280;17930;48.592;8.868;2024-02-26T03:47:42;94863.31;;;5.12;100.00
6829;BME280;17930;48.592;8.868;2024-02-26T03:50:09;94870.47;;;5.15;100.00
6829;BME280;17930;48.592;8.868;2024-02-26T03:52:36;94870.00;;;5.13;100.00
6829;BME280;17930;48.592;8.868;2024-02-26T03:55:03;94873.34;;;5.14;100.00
6829;BME280;17930;48.592;8.868;2024-02-26T03:57:30;94869.94;;;5.18;100.00
6829;BME280;17930;48.592;8.868;2024-02-26T03:59:59;94869.44;;;5.16;100.00
6829;BME280;17930;48.592;8.868;2024-02-26T04:02:26;94869.66;;;5.20;100.00
6829;BME280;17930;48.592;8.868;2024-02-26T04:04:54;94875.22;;;5.27;100.00
6829;BME280;17930;48.592;8.868;2024-02-26T04:07:20;94870.53;;;5.29;100.00
6829;BME280;17930;48.592;8.868;2024-02-26T04:09:47;94881.16;;;5.27;100.00
6829;BME280;17930;48.592;8.868;2024-02-26T04:12:14;94877.72;;;5.45;100.00
6829;BME280;17930;48.592;8.868;2024-02-26T04:14:40;94882.63;;;5.60;100.00
6829;BME280;17930;48.592;8.868;2024-02-26T04:17:07;94887.16;;;5.68;100.00
6829;BME280;17930;48.592;8.868;2024-02-26T04:19:34;94873.50;;;5.49;100.00
6829;BME280;17930;48.592;8.868;2024-02-26T04:22:02;94876.59;;;5.51;100.00
6829;BME280;17930;48.592;8.868;2024-02-26T04:24:29;94878.22;;;5.74;100.00
6829;BME280;17930;48.592;8.868;2024-02-26T04:26:56;94884.47;;;5.59;100.00
6829;BME280;17930;48.592;8.868;2024-02-26T04:29:23;94872.00;;;5.48;100.00
6829;BME280;17930;48.592;8.868;2024-02-26T04:31:49;94879.84;;;5.57;100.00
6829;BME280;17930;48.592;8.868;2024-02-26T04:34:16;94881.56;;;5.48;100.00
6829;BME280;17930;48.592;8.868;2024-02-26T04:36:43;94883.97;;;5.44;100.00
6829;BME280;17930;48.592;8.868;2024-02-26T04:39:11;94880.97;;;5.37;100.00
6829;BME280;17930;48.592;8.868;2024-02-26T04:41:37;94894.56;;;5.88;100.00
6829;BME280;17930;48.592;8.868;2024-02-26T04:44:04;94898.28;;;5.82;100.00
6829;BME280;17930;48.592;8.868;2024-02-26T04:46:31;94895.38;;;5.57;100.00
6829;BME280;17930;48.592;8.868;2024-02-26T04:48:58;94906.56;;;5.65;100.00
6829;BME280;17930;48.592;8.868;2024-02-26T04:51:24;94901.88;;;5.54;100.00
6829;BME280;17930;48.592;8.868;2024-02-26T04:53:51;94911.00;;;5.33;100.00
6829;BME280;17930;48.592;8.868;2024-02-26T04:56:21;94903.66;;;5.40;100.00
6829;BME280;17930;48.592;8.868;2024-02-26T04:58:48;94908.53;;;5.28;100.00
6829;BME280;17930;48.592;8.868;2024-02-26T05:01:15;94910.94;;;5.38;100.00
6829;BME280;17930;48.592;8.868;2024-02-26T05:03:42;94923.25;;;5.59;100.00
6829;BME280;17930;48.592;8.868;2024-02-26T05:06:09;94936.13;;;5.46;100.00
6829;BME280;17930;48.592;8.868;2024-02-26T05:08:35;94937.59;;;5.20;100.00
6829;BME280;17930;48.592;8.868;2024-02-26T05:11:04;94950.66;;;5.10;100.00
6829;BME280;17930;48.592;8.868;2024-02-26T05:13:32;94949.78;;;5.02;100.00
6829;BME280;17930;48.592;8.868;2024-02-26T05:15:59;94957.84;;;4.95;100.00
6829;BME280;17930;48.592;8.868;2024-02-26T05:18:25;94961.28;;;5.09;100.00
6829;BME280;17930;48.592;8.868;2024-02-26T05:20:52;94954.69;;;5.16;100.00
6829;BME280;17930;48.592;8.868;2024-02-26T05:23:19;94957.34;;;5.30;100.00
6829;BME280;17930;48.592;8.868;2024-02-26T05:25:45;94952.69;;;5.13;100.00
6829;BME280;17930;48.592;8.868;2024-02-26T05:28:13;94959.81;;;5.03;100.00
6829;BME280;17930;48.592;8.868;2024-02-26T05:30:42;94958.28;;;5.02;100.00
6829;BME280;17930;48.592;8.868;2024-02-26T05:33:09;94954.72;;;4.98;100.00
6829;BME280;17930;48.592;8.868;2024-02-26T05:35:36;94940.00;;;4.99;100.00
6829;BME280;17930;48.592;8.868;2024-02-26T05:38:03;94936.75;;;5.07;100.00
6829;BME280;17930;48.592;8.868;2024-02-26T05:40:30;94934.06;;;4.98;100.00
6829;BME280;17930;48.592;8.868;2024-02-26T05:42:57;94940.22;;;4.84;100.00
6829;BME280;17930;48.592;8.868;2024-02-26T05:45:23;94942.59;;;4.80;100.00
6829;BME280;17930;48.592;8.868;2024-02-26T05:47:51;94949.66;;;4.75;100.00
6829;BME280;17930;48.592;8.868;2024-02-26T05:50:18;94950.19;;;4.72;100.00
6829;BME280;17930;48.592;8.868;2024-02-26T05:52:45;94945.94;;;4.81;100.00
6829;BME280;17930;48.592;8.868;2024-02-26T05:55:11;94960.38;;;4.82;100.00
6829;BME280;17930;48.592;8.868;2024-02-26T05:57:39;94964.00;;;4.81;100.00
6829;BME280;17930;48.592;8.868;2024-02-26T06:00:06;94974.53;;;4.84;100.00
6829;BME280;17930;48.592;8.868;2024-02-26T06:02:33;94973.59;;;4.99;100.00
6829;BME280;17930;48.592;8.868;2024-02-26T06:05:01;94971.53;;;4.96;100.00
6829;BME280;17930;48.592;8.868;2024-02-26T06:07:28;94981.25;;;5.04;100.00
6829;BME280;17930;48.592;8.868;2024-02-26T06:09:55;94994.19;;;5.35;100.00
6829;BME280;17930;48.592;8.868;2024-02-26T06:12:21;94992.28;;;5.41;100.00
6829;BME280;17930;48.592;8.868;2024-02-26T06:14:49;94997.19;;;5.24;100.00
6829;BME280;17930;48.592;8.868;2024-02-26T06:17:15;95001.06;;;5.08;100.00
6829;BME280;17930;48.592;8.868;2024-02-26T06:19:42;95000.22;;;5.12;100.00
6829;BME280;17930;48.592;8.868;2024-02-26T06:22:10;95022.69;;;4.94;100.00
6829;BME280;17930;48.592;8.868;2024-02-26T06:24:37;95020.25;;;4.84;100.00
6829;BME280;17930;48.592;8.868;2024-02-26T06:27:04;95030.03;;;4.87;100.00
6829;BME280;17930;48.592;8.868;2024-02-26T06:29:30;95024.94;;;4.82;100.00
6829;BME280;17930;48.592;8.868;2024-02-26T06:31:57;95030.16;;;4.77;100.00
6829;BME280;17930;48.592;8.868;2024-02-26T06:34:24;95035.31;;;4.77;100.00
6829;BME280;17930;48.592;8.868;2024-02-26T06:36:51;95036.63;;;4.74;100.00
6829;BME280;17930;48.592;8.868;2024-02-26T06:39:19;95041.47;;;4.81;100.00
6829;BME280;17930;48.592;8.868;2024-02-26T06:41:45;95034.34;;;5.09;100.00
6829;BME280;17930;48.592;8.868;2024-02-26T06:44:13;95040.22;;;4.97;100.00
6829;BME280;17930;48.592;8.868;2024-02-26T06:46:40;95041.81;;;4.93;100.00
6829;BME280;17930;48.592;8.868;2024-02-26T06:49:07;95043.22;;;5.22;100.00
6829;BME280;17930;48.592;8.868;2024-02-26T06:51:33;95043.94;;;5.09;100.00
6829;BME280;17930;48.592;8.868;2024-02-26T06:54:00;95040.44;;;5.00;100.00
6829;BME280;17930;48.592;8.868;2024-02-26T06:56:28;95051.59;;;5.14;100.00
6829;BME280;17930;48.592;8.868;2024-02-26T06:58:55;95051.69;;;5.27;100.00
6829;BME280;17930;48.592;8.868;2024-02-26T07:01:22;95056.44;;;5.20;100.00
6829;BME280;17930;48.592;8.868;2024-02-26T07:03:48;95045.25;;;5.43;100.00
6829;BME280;17930;48.592;8.868;2024-02-26T07:06:15;95039.44;;;5.51;100.00
6829;BME280;17930;48.592;8.868;2024-02-26T07:08:42;95044.19;;;5.44;100.00
6829;BME280;17930;48.592;8.868;2024-02-26T07:11:08;95043.13;;;5.45;100.00
6829;BME280;17930;48.592;8.868;2024-02-26T07:13:38;95047.97;;;5.33;100.00
6829;BME280;17930;48.592;8.868;2024-02-26T07:16:05;95049.81;;;5.33;100.00
6829;BME280;17930;48.592;8.868;2024-02-26T07:18:32;95044.06;;;5.36;100.00
6829;BME280;17930;48.592;8.868;2024-02-26T07:21:01;95030.78;;;5.42;100.00
6829;BME280;17930;48.592;8.868;2024-02-26T07:23:28;95042.94;;;5.42;100.00
6829;BME280;17930;48.592;8.868;2024-02-26T07:25:54;95044.13;;;5.49;100.00
6829;BME280;17930;48.592;8.868;2024-02-26T07:28:21;95044.56;;;5.88;100.00
6829;BME280;17930;48.592;8.868;2024-02-26T07:30:49;95045.44;;;5.97;100.00
6829;BME280;17930;48.592;8.868;2024-02-26T07:33:16;95036.81;;;5.88;100.00
6829;BME280;17930;48.592;8.868;2024-02-26T07:35:43;95040.84;;;5.94;100.00
6829;BME280;17930;48.592;8.868;2024-02-26T07:38:10;95039.69;;;6.00;100.00
6829;BME280;17930;48.592;8.868;2024-02-26T07:40:38;95047.22;;;6.14;100.00
6829;BME280;17930;48.592;8.868;2024-02-26T07:43:05;95047.59;;;6.21;100.00
6829;BME280;17930;48.592;8.868;2024-02-26T07:45:31;95046.81;;;6.08;100.00
6829;BME280;17930;48.592;8.868;2024-02-26T07:47:59;95049.91;;;6.23;100.00
6829;BME280;17930;48.592;8.868;2024-02-26T07:50:26;95045.28;;;6.20;100.00
6829;BME280;17930;48.592;8.868;2024-02-26T07:52:53;95046.06;;;6.20;100.00
6829;BME280;17930;48.592;8.868;2024-02-26T07:55:19;95035.72;;;6.20;100.00
6829;BME280;17930;48.592;8.868;2024-02-26T07:57:47;95043.19;;;6.35;100.00
6829;BME280;17930;48.592;8.868;2024-02-26T08:00:15;95048.09;;;6.23;100.00
6829;BME280;17930;48.592;8.868;2024-02-26T08:02:42;95044.34;;;6.16;100.00
6829;BME280;17930;48.592;8.868;2024-02-26T08:05:11;95042.63;;;6.25;100.00
6829;BME280;17930;48.592;8.868;2024-02-26T08:07:37;95046.84;;;6.34;100.00
6829;BME280;17930;48.592;8.868;2024-02-26T08:10:04;95053.94;;;6.42;100.00
6829;BME280;17930;48.592;8.868;2024-02-26T08:12:31;95043.31;;;6.57;100.00
6829;BME280;17930;48.592;8.868;2024-02-26T08:14:58;95039.09;;;6.61;100.00
6829;BME280;17930;48.592;8.868;2024-02-26T08:17:25;95049.53;;;6.83;100.00
6829;BME280;17930;48.592;8.868;2024-02-26T08:19:53;95051.06;;;6.84;100.00
6829;BME280;17930;48.592;8.868;2024-02-26T08:22:21;95053.84;;;6.87;100.00
6829;BME280;17930;48.592;8.868;2024-02-26T08:24:47;95059.22;;;6.91;100.00
6829;BME280;17930;48.592;8.868;2024-02-26T08:27:14;95053.09;;;6.87;100.00
6829;BME280;17930;48.592;8.868;2024-02-26T08:29:41;95045.25;;;7.13;100.00
6829;BME280;17930;48.592;8.868;2024-02-26T08:32:07;95041.56;;;7.28;100.00
6829;BME280;17930;48.592;8.868;2024-02-26T08:34:34;95043.50;;;7.22;100.00
6829;BME280;17930;48.592;8.868;2024-02-26T08:37:01;95039.28;;;7.26;100.00
6829;BME280;17930;48.592;8.868;2024-02-26T08:39:29;95046.41;;;7.08;100.00
6829;BME280;17930;48.592;8.868;2024-02-26T08:41:56;95045.56;;;6.99;100.00
6829;BME280;17930;48.592;8.868;2024-02-26T08:44:23;95031.22;;;7.14;100.00
6829;BME280;17930;48.592;8.868;2024-02-26T08:46:50;95033.31;;;7.26;100.00
6829;BME280;17930;48.592;8.868;2024-02-26T08:49:18;95045.78;;;7.37;100.00
6829;BME280;17930;48.592;8.868;2024-02-26T08:51:44;95042.22;;;7.33;100.00
6829;BME280;17930;48.592;8.868;2024-02-26T08:54:11;95035.88;;;7.39;100.00
6829;BME280;17930;48.592;8.868;2024-02-26T08:56:39;95031.31;;;7.23;100.00
6829;BME280;17930;48.592;8.868;2024-02-26T08:59:06;95026.63;;;7.12;100.00
6829;BME280;17930;48.592;8.868;2024-02-26T09:01:32;95024.69;;;7.17;100.00
6829;BME280;17930;48.592;8.868;2024-02-26T09:03:59;95027.50;;;7.42;100.00
6829;BME280;17930;48.592;8.868;2024-02-26T09:06:26;95027.16;;;7.57;100.00
6829;BME280;17930;48.592;8.868;2024-02-26T09:08:52;95030.59;;;7.66;100.00
6829;BME280;17930;48.592;8.868;2024-02-26T09:11:19;95032.22;;;7.62;100.00
6829;BME280;17930;48.592;8.868;2024-02-26T09:13:47;95024.66;;;7.74;100.00
6829;BME280;17930;48.592;8.868;2024-02-26T09:16:14;95019.16;;;7.97;100.00
6829;BME280;17930;48.592;8.868;2024-02-26T09:18:41;95025.66;;;8.08;100.00
6829;BME280;17930;48.592;8.868;2024-02-26T09:21:08;95024.97;;;8.24;100.00
6829;BME280;17930;48.592;8.868;2024-02-26T09:23:34;95014.78;;;8.83;100.00
6829;BME280;17930;48.592;8.868;2024-02-26T09:26:02;95027.47;;;8.76;100.00
6829;BME280;17930;48.592;8.868;2024-02-26T09:28:29;95018.25;;;8.62;100.00
6829;BME280;17930;48.592;8.868;2024-02-26T09:31:01;95007.97;;;9.04;100.00
6829;BME280;17930;48.592;8.868;2024-02-26T09:33:28;95013.31;;;9.24;100.00
6829;BME280;17930;48.592;8.868;2024-02-26T09:35:55;95015.00;;;9.37;100.00
6829;BME280;17930;48.592;8.868;2024-02-26T09:38:21;95010.81;;;10.04;100.00
6829;BME280;17930;48.592;8.868;2024-02-26T09:40:49;95005.91;;;10.85;100.00
6829;BME280;17930;48.592;8.868;2024-02-26T09:43:17;95009.41;;;10.89;100.00
6829;BME280;17930;48.592;8.868;2024-02-26T09:45:49;95015.16;;;10.74;100.00
6829;BME280;17930;48.592;8.868;2024-02-26T09:48:18;95029.47;;;10.68;100.00
6829;BME280;17930;48.592;8.868;2024-02-26T09:50:45;95032.56;;;11.39;100.00
6829;BME280;17930;48.592;8.868;2024-02-26T09:53:12;95028.13;;;11.60;100.00
6829;BME280;17930;48.592;8.868;2024-02-26T09:55:40;95032.06;;;11.86;100.00
6829;BME280;17930;48.592;8.868;2024-02-26T09:58:07;95030.72;;;12.13;100.00
6829;BME280;17930;48.592;8.868;2024-02-26T10:00:37;95039.75;;;12.71;100.00
6829;BME280;17930;48.592;8.868;2024-02-26T10:03:06;95046.84;;;11.82;100.00
6829;BME280;17930;48.592;8.868;2024-02-26T10:05:37;95048.56;;;11.09;100.00
6829;BME280;17930;48.592;8.868;2024-02-26T10:08:04;95043.63;;;11.16;100.00
6829;BME280;17930;48.592;8.868;2024-02-26T10:10:32;95033.91;;;10.96;100.00
6829;BME280;17930;48.592;8.868;2024-02-26T10:12:59;95045.91;;;10.89;100.00
6829;BME280;17930;48.592;8.868;2024-02-26T10:15:26;95047.56;;;11.02;100.00
6829;BME280;17930;48.592;8.868;2024-02-26T10:17:53;95036.34;;;11.01;100.00
6829;BME280;17930;48.592;8.868;2024-02-26T10:20:20;95040.63;;;10.77;100.00
6829;BME280;17930;48.592;8.868;2024-02-26T10:22:50;95037.69;;;10.78;100.00
6829;BME280;17930;48.592;8.868;2024-02-26T10:25:18;95042.97;;;10.90;100.00
6829;BME280;17930;48.592;8.868;2024-02-26T10:27:45;95047.38;;;10.78;100.00
6829;BME280;17930;48.592;8.868;2024-02-26T10:30:19;95042.69;;;10.92;100.00
6829;BME280;17930;48.592;8.868;2024-02-26T10:32:47;95040.97;;;10.96;100.00
6829;BME280;17930;48.592;8.868;2024-02-26T10:35:14;95035.38;;;11.55;100.00
6829;BME280;17930;48.592;8.868;2024-02-26T10:37:41;95045.66;;;11.11;100.00
6829;BME280;17930;48.592;8.868;2024-02-26T10:40:11;95054.72;;;10.76;100.00
6829;BME280;17930;48.592;8.868;2024-02-26T10:42:38;95047.28;;;10.95;100.00
6829;BME280;17930;48.592;8.868;2024-02-26T10:45:06;95051.25;;;11.21;100.00
6829;BME280;17930;48.592;8.868;2024-02-26T10:47:33;95061.28;;;11.39;100.00
6829;BME280;17930;48.592;8.868;2024-02-26T10:50:02;95065.59;;;11.35;100.00
6829;BME280;17930;48.592;8.868;2024-02-26T10:52:31;95064.56;;;11.77;100.00
6829;BME280;17930;48.592;8.868;2024-02-26T10:55:00;95066.16;;;12.02;100.00
6829;BME280;17930;48.592;8.868;2024-02-26T10:57:33;95075.25;;;11.84;100.00
6829;BME280;17930;48.592;8.868;2024-02-26T11:00:01;95058.22;;;12.30;100.00
6829;BME280;17930;48.592;8.868;2024-02-26T11:02:31;95064.22;;;12.87;100.00
6829;BME280;17930;48.592;8.868;2024-02-26T11:05:00;95068.16;;;12.93;100.00
6829;BME280;17930;48.592;8.868;2024-02-26T11:07:27;95064.84;;;13.08;100.00
6829;BME280;17930;48.592;8.868;2024-02-26T11:09:56;95067.84;;;12.50;100.00
6829;BME280;17930;48.592;8.868;2024-02-26T11:12:24;95071.97;;;12.39;100.00
6829;BME280;17930;48.592;8.868;2024-02-26T11:14:53;95064.38;;;12.14;100.00
6829;BME280;17930;48.592;8.868;2024-02-26T11:17:22;95073.75;;;12.47;100.00
6829;BME280;17930;48.592;8.868;2024-02-26T11:19:49;95073.47;;;13.44;100.00
6829;BME280;17930;48.592;8.868;2024-02-26T11:22:17;95073.97;;;14.28;100.00
6829;BME280;17930;48.592;8.868;2024-02-26T11:24:44;95072.00;;;14.36;100.00
6829;BME280;17930;48.592;8.868;2024-02-26T11:27:11;95073.00;;;14.47;100.00
6829;BME280;17930;48.592;8.868;2024-02-26T11:29:42;95075.59;;;14.32;100.00
6829;BME280;17930;48.592;8.868;2024-02-26T11:32:11;95078.19;;;14.05;100.00
6829;BME280;17930;48.592;8.868;2024-02-26T11:34:39;95087.75;;;13.34;100.00
6829;BME280;17930;48.592;8.868;2024-02-26T11:37:10;95079.69;;;13.16;100.00
6829;BME280;17930;48.592;8.868;2024-02-26T11:39:37;95084.91;;;12.80;100.00
6829;BME280;17930;48.592;8.868;2024-02-26T11:42:05;95077.53;;;12.94;100.00
6829;BME280;17930;48.592;8.868;2024-02-26T11:44:34;95079.91;;;13.34;100.00
6829;BME280;17930;48.592;8.868;2024-02-26T11:47:11;95082.94;;;13.48;100.00
6829;BME280;17930;48.592;8.868;2024-02-26T11:49:38;95086.59;;;13.71;100.00
6829;BME280;17930;48.592;8.868;2024-02-26T11:52:07;95099.66;;;13.95;100.00
6829;BME280;17930;48.592;8.868;2024-02-26T11:54:38;95091.63;;;13.64;100.00
6829;BME280;17930;48.592;8.868;2024-02-26T11:57:04;95103.78;;;13.33;100.00
6829;BME280;17930;48.592;8.868;2024-02-26T11:59:45;95109.59;;;13.03;100.00
6829;BME280;17930;48.592;8.868;2024-02-26T12:02:40;95104.94;;;12.76;100.00
6829;BME280;17930;48.592;8.868;2024-02-26T12:05:10;95100.88;;;13.11;100.00
6829;BME280;17930;48.592;8.868;2024-02-26T12:07:39;95099.09;;;13.38;100.00
6829;BME280;17930;48.592;8.868;2024-02-26T12:10:15;95090.25;;;13.43;100.00
6829;BME280;17930;48.592;8.868;2024-02-26T12:12:43;95098.88;;;13.31;100.00
6829;BME280;17930;48.592;8.868;2024-02-26T12:15:14;95095.84;;;12.94;100.00
6829;BME280;17930;48.592;8.868;2024-02-26T12:17:49;95095.97;;;12.85;100.00
6829;BME280;17930;48.592;8.868;2024-02-26T12:20:18;95090.47;;;13.50;100.00
6829;BME280;17930;48.592;8.868;2024-02-26T12:22:46;95096.16;;;13.91;100.00
6829;BME280;17930;48.592;8.868;2024-02-26T12:25:14;95094.72;;;14.75;100.00
6829;BME280;17930;48.592;8.868;2024-02-26T12:27:40;95087.44;;;14.84;100.00
6829;BME280;17930;48.592;8.868;2024-02-26T12:30:09;95088.97;;;15.16;100.00
6829;BME280;17930;48.592;8.868;2024-02-26T12:32:36;95081.72;;;15.43;100.00
6829;BME280;17930;48.592;8.868;2024-02-26T12:35:08;95088.03;;;15.39;100.00
6829;BME280;17930;48.592;8.868;2024-02-26T12:37:35;95084.38;;;15.43;100.00
6829;BME280;17930;48.592;8.868;2024-02-26T12:40:05;95081.34;;;15.60;100.00
6829;BME280;17930;48.592;8.868;2024-02-26T12:42:38;95081.09;;;15.65;100.00
6829;BME280;17930;48.592;8.868;2024-02-26T12:45:14;95070.03;;;16.13;100.00
6829;BME280;17930;48.592;8.868;2024-02-26T12:47:43;95076.56;;;16.19;100.00
6829;BME280;17930;48.592;8.868;2024-02-26T12:50:22;95084.13;;;17.25;100.00
6829;BME280;17930;48.592;8.868;2024-02-26T12:52:54;95078.19;;;17.31;100.00
6829;BME280;17930;48.592;8.868;2024-02-26T12:55:21;95084.53;;;17.52;100.00
6829;BME280;17930;48.592;8.868;2024-02-26T12:57:52;95089.28;;;17.69;100.00
6829;BME280;17930;48.592;8.868;2024-02-26T13:00:22;95084.03;;;17.44;100.00
6829;BME280;17930;48.592;8.868;2024-02-26T13:02:50;95085.59;;;18.03;100.00
6829;BME280;17930;48.592;8.868;2024-02-26T13:05:20;95083.03;;;18.75;100.00
6829;BME280;17930;48.592;8.868;2024-02-26T13:07:48;95083.09;;;18.82;100.00
6829;BME280;17930;48.592;8.868;2024-02-26T13:10:16;95092.19;;;18.16;100.00